sensor_id;sensor_type;location;lat;lon;timestamp;pressure;altitude;pressure_sealevel;temperature
62932;BMP280;49037;41.898;25.004;2022-11-20T00:01:23;95904.88;;;17.40
62932;BMP280;49037;41.898;25.004;2022-11-20T00:03:55;95911.44;;;17.60
62932;BMP280;49037;41.898;25.004;2022-11-20T00:06:25;95886.66;;;17.63
62932;BMP280;49037;41.898;25.004;2022-11-20T00:08:57;95924.19;;;17.82
62932;BMP280;49037;41.898;25.004;2022-11-20T00:13:20;95885.41;;;18.14
62932;BMP280;49037;41.898;25.004;2022-11-20T00:15:45;95906.00;;;18.32
62932;BMP280;49037;41.898;25.004;2022-11-20T00:18:10;95909.41;;;18.57
62932;BMP280;49037;41.898;25.004;2022-11-20T00:20:36;95916.19;;;18.96
62932;BMP280;49037;41.898;25.004;2022-11-20T00:23:04;95896.19;;;18.76
62932;BMP280;49037;41.898;25.004;2022-11-20T00:25:33;95887.63;;;18.93
62932;BMP280;49037;41.898;25.004;2022-11-20T00:28:08;95905.19;;;19.06
62932;BMP280;49037;41.898;25.004;2022-11-20T00:41:49;95911.00;;;19.82
62932;BMP280;49037;41.898;25.004;2022-11-20T00:44:51;95887.94;;;19.52
62932;BMP280;49037;41.898;25.004;2022-11-20T00:59:28;95904.25;;;19.68
62932;BMP280;49037;41.898;25.004;2022-11-20T01:03:19;95916.31;;;19.25
62932;BMP280;49037;41.898;25.004;2022-11-20T01:05:47;95899.84;;;18.94
62932;BMP280;49037;41.898;25.004;2022-11-20T01:08:45;95905.56;;;19.00
62932;BMP280;49037;41.898;25.004;2022-11-20T01:11:19;95910.78;;;18.96
62932;BMP280;49037;41.898;25.004;2022-11-20T01:13:46;95901.25;;;18.82
62932;BMP280;49037;41.898;25.004;2022-11-20T01:16:26;95895.78;;;18.68
62932;BMP280;49037;41.898;25.004;2022-11-20T01:19:22;95889.06;;;18.56
62932;BMP280;49037;41.898;25.004;2022-11-20T01:21:52;95906.38;;;18.89
62932;BMP280;49037;41.898;25.004;2022-11-20T01:24:20;95898.25;;;18.89
62932;BMP280;49037;41.898;25.004;2022-11-20T01:26:48;95887.91;;;18.99
62932;BMP280;49037;41.898;25.004;2022-11-20T01:29:24;95899.25;;;18.96
62932;BMP280;49037;41.898;25.004;2022-11-20T01:34:24;95910.19;;;19.11
62932;BMP280;49037;41.898;25.004;2022-11-20T01:37:06;95901.88;;;19.07
62932;BMP280;49037;41.898;25.004;2022-11-20T01:40:03;95895.16;;;19.08
62932;BMP280;49037;41.898;25.004;2022-11-20T01:42:57;95896.06;;;19.26
62932;BMP280;49037;41.898;25.004;2022-11-20T01:47:49;95900.47;;;19.19
62932;BMP280;49037;41.898;25.004;2022-11-20T01:54:30;95898.75;;;19.52
62932;BMP280;49037;41.898;25.004;2022-11-20T02:00:12;95887.16;;;19.79
62932;BMP280;49037;41.898;25.004;2022-11-20T02:02:39;95888.47;;;19.64
62932;BMP280;49037;41.898;25.004;2022-11-20T02:06:25;95871.94;;;19.58
62932;BMP280;49037;41.898;25.004;2022-11-20T02:09:18;95861.41;;;19.64
62932;BMP280;49037;41.898;25.004;2022-11-20T02:12:17;95854.25;;;19.71
62932;BMP280;49037;41.898;25.004;2022-11-20T02:15:01;95852.56;;;19.64
62932;BMP280;49037;41.898;25.004;2022-11-20T02:18:35;95844.63;;;19.68
62932;BMP280;49037;41.898;25.004;2022-11-20T02:27:14;95842.47;;;19.80
62932;BMP280;49037;41.898;25.004;2022-11-20T02:39:10;95806.25;;;20.32
62932;BMP280;49037;41.898;25.004;2022-11-20T02:42:04;95848.25;;;20.31
62932;BMP280;49037;41.898;25.004;2022-11-20T02:44:43;95847.44;;;20.14
62932;BMP280;49037;41.898;25.004;2022-11-20T02:47:30;95831.19;;;20.14
62932;BMP280;49037;41.898;25.004;2022-11-20T02:50:16;95825.25;;;20.17
62932;BMP280;49037;41.898;25.004;2022-11-20T02:53:02;95820.78;;;20.08
62932;BMP280;49037;41.898;25.004;2022-11-20T02:59:30;95812.53;;;20.06
62932;BMP280;49037;41.898;25.004;2022-11-20T03:05:15;95826.69;;;19.89
62932;BMP280;49037;41.898;25.004;2022-11-20T03:11:07;95813.97;;;19.79
62932;BMP280;49037;41.898;25.004;2022-11-20T03:17:16;95809.91;;;19.93
62932;BMP280;49037;41.898;25.004;2022-11-20T03:19:45;95811.28;;;19.79
62932;BMP280;49037;41.898;25.004;2022-11-20T03:25:46;95823.94;;;19.61
62932;BMP280;49037;41.898;25.004;2022-11-20T03:42:27;95837.84;;;19.53
62932;BMP280;49037;41.898;25.004;2022-11-20T03:59:29;95809.09;;;19.62
62932;BMP280;49037;41.898;25.004;2022-11-20T04:02:24;95816.44;;;19.31
62932;BMP280;49037;41.898;25.004;2022-11-20T04:05:20;95831.09;;;19.26
62932;BMP280;49037;41.898;25.004;2022-11-20T04:08:08;95831.69;;;18.98
62932;BMP280;49037;41.898;25.004;2022-11-20T04:10:49;95824.47;;;18.62
62932;BMP280;49037;41.898;25.004;2022-11-20T04:13:36;95836.81;;;18.78
62932;BMP280;49037;41.898;25.004;2022-11-20T04:35:42;95840.66;;;19.84
62932;BMP280;49037;41.898;25.004;2022-11-20T04:38:26;95826.72;;;19.47
62932;BMP280;49037;41.898;25.004;2022-11-20T04:41:08;95822.28;;;19.54
62932;BMP280;49037;41.898;25.004;2022-11-20T04:43:58;95823.22;;;19.32
62932;BMP280;49037;41.898;25.004;2022-11-20T05:51:14;95839.28;;;18.61
62932;BMP280;49037;41.898;25.004;2022-11-20T05:53:43;95843.28;;;18.47
62932;BMP280;49037;41.898;25.004;2022-11-20T05:56:28;95841.91;;;18.21
62932;BMP280;49037;41.898;25.004;2022-11-20T05:59:03;95841.28;;;18.23
62932;BMP280;49037;41.898;25.004;2022-11-20T06:01:48;95852.88;;;18.12
62932;BMP280;49037;41.898;25.004;2022-11-20T06:04:28;95856.06;;;18.08
62932;BMP280;49037;41.898;25.004;2022-11-20T06:33:58;95873.31;;;18.39
62932;BMP280;49037;41.898;25.004;2022-11-20T14:09:57;95756.75;;;21.47
62932;BMP280;49037;41.898;25.004;2022-11-20T15:06:02;95842.34;;;19.62
62932;BMP280;49037;41.898;25.004;2022-11-20T15:08:51;95856.63;;;19.36
62932;BMP280;49037;41.898;25.004;2022-11-20T15:11:58;95844.00;;;18.61
62932;BMP280;49037;41.898;25.004;2022-11-20T15:14:28;95841.91;;;18.21
62932;BMP280;49037;41.898;25.004;2022-11-20T15:17:07;95835.91;;;17.98
62932;BMP280;49037;41.898;25.004;2022-11-20T15:19:36;95832.19;;;17.67
62932;BMP280;49037;41.898;25.004;2022-11-20T15:22:30;95812.63;;;17.44
62932;BMP280;49037;41.898;25.004;2022-11-20T15:28:50;95793.72;;;16.96
62932;BMP280;49037;41.898;25.004;2022-11-20T15:31:43;95808.34;;;16.93
62932;BMP280;49037;41.898;25.004;2022-11-20T15:34:26;95797.13;;;16.85
62932;BMP280;49037;41.898;25.004;2022-11-20T15:40:47;95820.91;;;16.77
62932;BMP280;49037;41.898;25.004;2022-11-20T15:43:13;95809.78;;;16.60
62932;BMP280;49037;41.898;25.004;2022-11-20T15:46:21;95833.09;;;16.67
62932;BMP280;49037;41.898;25.004;2022-11-20T15:49:11;95830.38;;;16.44
62932;BMP280;49037;41.898;25.004;2022-11-20T15:56:19;95828.22;;;16.20
62932;BMP280;49037;41.898;25.004;2022-11-20T21:09:20;95585.09;;;15.31
62932;BMP280;49037;41.898;25.004;2022-11-20T21:11:48;95599.88;;;15.41
62932;BMP280;49037;41.898;25.004;2022-11-20T21:14:15;95583.09;;;15.20
62932;BMP280;49037;41.898;25.004;2022-11-20T21:16:40;95588.31;;;15.18
62932;BMP280;49037;41.898;25.004;2022-11-20T21:19:09;95581.56;;;15.17
62932;BMP280;49037;41.898;25.004;2022-11-20T21:21:35;95574.78;;;15.16
62932;BMP280;49037;41.898;25.004;2022-11-20T21:24:19;95555.34;;;15.06
62932;BMP280;49037;41.898;25.004;2022-11-20T21:26:44;95552.84;;;14.98
62932;BMP280;49037;41.898;25.004;2022-11-20T21:29:13;95522.56;;;14.98
62932;BMP280;49037;41.898;25.004;2022-11-20T21:31:41;95531.97;;;15.08
62932;BMP280;49037;41.898;25.004;2022-11-20T21:34:16;95510.41;;;14.97
62932;BMP280;49037;41.898;25.004;2022-11-20T21:36:51;95507.66;;;15.06
62932;BMP280;49037;41.898;25.004;2022-11-20T21:39:17;95512.06;;;15.02
62932;BMP280;49037;41.898;25.004;2022-11-20T21:41:48;95499.66;;;14.97
62932;BMP280;49037;41.898;25.004;2022-11-20T21:44:23;95494.50;;;14.90
62932;BMP280;49037;41.898;25.004;2022-11-20T21:46:58;95501.69;;;14.76
62932;BMP280;49037;41.898;25.004;2022-11-20T21:49:24;95510.84;;;14.82
62932;BMP280;49037;41.898;25.004;2022-11-20T21:51:51;95494.22;;;14.74
62932;BMP280;49037;41.898;25.004;2022-11-20T21:54:25;95501.91;;;14.68
62932;BMP280;49037;41.898;25.004;2022-11-20T21:57:18;95499.84;;;14.78
62932;BMP280;49037;41.898;25.004;2022-11-20T21:59:43;95502.59;;;14.69
62932;BMP280;49037;41.898;25.004;2022-11-20T22:02:20;95483.22;;;14.70
62932;BMP280;49037;41.898;25.004;2022-11-20T22:04:50;95482.75;;;14.74
62932;BMP280;49037;41.898;25.004;2022-11-20T22:07:21;95492.81;;;14.73
62932;BMP280;49037;41.898;25.004;2022-11-20T22:09:46;95470.94;;;14.67
62932;BMP280;49037;41.898;25.004;2022-11-20T22:12:12;95476.22;;;14.65
62932;BMP280;49037;41.898;25.004;2022-11-20T22:14:44;95482.47;;;14.58
62932;BMP280;49037;41.898;25.004;2022-11-20T22:17:14;95487.19;;;14.69
62932;BMP280;49037;41.898;25.004;2022-11-20T22:20:00;95468.22;;;14.56
62932;BMP280;49037;41.898;25.004;2022-11-20T22:22:30;95483.84;;;14.48
62932;BMP280;49037;41.898;25.004;2022-11-20T22:24:58;95486.50;;;14.80
62932;BMP280;49037;41.898;25.004;2022-11-20T22:27:23;95488.06;;;14.83
62932;BMP280;49037;41.898;25.004;2022-11-20T22:29:52;95490.59;;;14.81
62932;BMP280;49037;41.898;25.004;2022-11-20T22:32:17;95485.81;;;14.80
62932;BMP280;49037;41.898;25.004;2022-11-20T22:34:45;95492.91;;;14.75
62932;BMP280;49037;41.898;25.004;2022-11-20T22:37:13;95497.88;;;14.79
62932;BMP280;49037;41.898;25.004;2022-11-20T22:39:39;95507.78;;;14.76
62932;BMP280;49037;41.898;25.004;2022-11-20T22:42:07;95501.09;;;14.66
62932;BMP280;49037;41.898;25.004;2022-11-20T22:44:32;95508.41;;;14.54
62932;BMP280;49037;41.898;25.004;2022-11-20T22:46:58;95507.09;;;14.55
62932;BMP280;49037;41.898;25.004;2022-11-20T22:49:23;95477.88;;;14.50
62932;BMP280;49037;41.898;25.004;2022-11-20T22:51:49;95458.81;;;14.46
62932;BMP280;49037;41.898;25.004;2022-11-20T22:54:14;95448.41;;;14.40
62932;BMP280;49037;41.898;25.004;2022-11-20T22:56:40;95423.44;;;14.38
62932;BMP280;49037;41.898;25.004;2022-11-20T22:59:09;95408.00;;;14.38
62932;BMP280;49037;41.898;25.004;2022-11-20T23:01:37;95407.78;;;14.46
62932;BMP280;49037;41.898;25.004;2022-11-20T23:04:05;95392.69;;;14.41
62932;BMP280;49037;41.898;25.004;2022-11-20T23:06:38;95388.72;;;14.30
62932;BMP280;49037;41.898;25.004;2022-11-20T23:09:07;95385.59;;;14.34
62932;BMP280;49037;41.898;25.004;2022-11-20T23:11:40;95362.78;;;14.35
62932;BMP280;49037;41.898;25.004;2022-11-20T23:14:11;95352.03;;;14.35
62932;BMP280;49037;41.898;25.004;2022-11-20T23:16:39;95339.66;;;14.30
62932;BMP280;49037;41.898;25.004;2022-11-20T23:19:10;95329.81;;;14.23
62932;BMP280;49037;41.898;25.004;2022-11-20T23:21:52;95327.41;;;14.27
62932;BMP280;49037;41.898;25.004;2022-11-20T23:24:26;95345.56;;;14.17
62932;BMP280;49037;41.898;25.004;2022-11-20T23:26:52;95308.00;;;13.85
62932;BMP280;49037;41.898;25.004;2022-11-20T23:29:25;95323.31;;;13.94
62932;BMP280;49037;41.898;25.004;2022-11-20T23:31:53;95345.16;;;14.00
62932;BMP280;49037;41.898;25.004;2022-11-20T23:34:21;95340.94;;;13.97
62932;BMP280;49037;41.898;25.004;2022-11-20T23:36:47;95316.16;;;13.87
62932;BMP280;49037;41.898;25.004;2022-11-20T23:39:15;95315.56;;;13.77
62932;BMP280;49037;41.898;25.004;2022-11-20T23:41:41;95313.72;;;13.79
62932;BMP280;49037;41.898;25.004;2022-11-20T23:44:09;95334.06;;;13.73
62932;BMP280;49037;41.898;25.004;2022-11-20T23:46:52;95337.09;;;13.68
62932;BMP280;49037;41.898;25.004;2022-11-20T23:49:28;95298.06;;;13.55
62932;BMP280;49037;41.898;25.004;2022-11-20T23:52:05;95273.72;;;13.63
62932;BMP280;49037;41.898;25.004;2022-11-20T23:54:38;95299.41;;;13.66
62932;BMP280;49037;41.898;25.004;2022-11-20T23:57:16;95295.19;;;13.42
62932;BMP280;49037;41.898;25.004;2022-11-20T23:59:42;95297.34;;;13.34
